Time;durP1;ratioP1;P1;durP2;ratioP2;P2;SDS_P1;SDS_P2;PMS_P1;PMS_P2;Temp;Humidity;BMP_temperature;BMP_pressure;BME280_temperature;BME280_humidity;BME280_pressure;Samples;Min_cycle;Max_cycle;Signal;HPM_P1;HPM_P2
2022/08/11 00:01:59;;;;;;;6.72;1.50;;;;;;;18.25;44.77;100233.41;5032658;28;20076;-69
2022/08/11 00:04:34;;;;;;;2.70;1.08;;;;;;;18.25;44.71;100244.66;5032209;28;20077;-69
2022/08/11 00:07:05;;;;;;;2.38;1.23;;;;;;;18.23;44.77;100244.22;5032429;28;20535;-70
2022/08/11 00:09:36;;;;;;;2.50;1.52;;;;;;;18.23;45.10;100249.84;5032103;28;20059;-69
2022/08/11 00:12:16;;;;;;;2.45;1.10;;;;;;;18.19;45.06;100238.50;5032080;28;20084;-69
2022/08/11 00:14:53;;;;;;;2.97;1.20;;;;;;;18.18;45.43;100244.50;5030743;28;20089;-69
2022/08/11 00:17:26;;;;;;;1.90;1.10;;;;;;;18.16;45.34;100246.88;5031962;28;20060;-69
2022/08/11 00:20:01;;;;;;;4.45;1.17;;;;;;;18.14;45.37;100252.03;5032104;28;20077;-70
2022/08/11 00:22:44;;;;;;;7.70;1.13;;;;;;;18.10;45.67;100256.78;5031951;28;20534;-69
2022/08/11 00:25:18;;;;;;;1.40;0.95;;;;;;;18.05;45.99;100252.25;5032333;28;20140;-69
2022/08/11 00:27:47;;;;;;;3.75;1.55;;;;;;;17.95;46.07;100260.44;5033452;28;20085;-70
2022/08/11 00:30:15;;;;;;;5.53;1.10;;;;;;;17.87;46.66;100253.81;5036267;28;20132;-70
2022/08/11 00:32:51;;;;;;;4.50;1.05;;;;;;;17.87;46.65;100250.16;5036000;28;20046;-70
2022/08/11 00:35:25;;;;;;;2.22;0.90;;;;;;;17.85;46.59;100250.53;5036361;28;20057;-69
2022/08/11 00:38:13;;;;;;;2.50;1.02;;;;;;;17.84;46.62;100254.53;5035900;28;20455;-69
2022/08/11 00:40:54;;;;;;;4.30;1.30;;;;;;;17.87;46.89;100252.97;5035984;28;20162;-70
2022/08/11 00:43:21;;;;;;;1.67;0.93;;;;;;;17.84;46.79;100259.34;5035476;28;20064;-70
2022/08/11 00:46:30;;;;;;;2.85;0.90;;;;;;;17.83;47.05;100252.09;5034375;28;20099;-70
2022/08/11 00:49:19;;;;;;;2.03;0.98;;;;;;;17.86;47.14;100256.97;5007597;28;20064;-70
2022/08/11 00:52:23;;;;;;;1.70;1.05;;;;;;;17.87;47.00;100258.59;5036115;28;20046;-70
2022/08/11 00:55:22;;;;;;;2.40;1.40;;;;;;;17.85;47.32;100256.16;5035627;28;20136;-70
2022/08/11 00:58:16;;;;;;;4.82;1.92;;;;;;;17.87;47.37;100264.22;5035659;28;20457;-70
2022/08/11 01:01:09;;;;;;;5.47;1.80;;;;;;;17.86;47.39;100269.03;5035701;28;20137;-70
2022/08/11 01:04:10;;;;;;;2.30;1.23;;;;;;;17.85;47.42;100266.59;5035592;28;20244;-70
2022/08/11 01:06:50;;;;;;;2.25;1.10;;;;;;;17.84;47.72;100274.22;5035488;28;20061;-70
2022/08/11 01:09:32;;;;;;;2.00;0.90;;;;;;;17.83;47.76;100275.41;5035158;28;20425;-68
2022/08/11 01:12:02;;;;;;;1.63;0.98;;;;;;;17.80;47.92;100278.94;5033964;28;20124;-69
2022/08/11 01:14:44;;;;;;;4.20;1.20;;;;;;;17.83;48.08;100283.03;5035151;28;20152;-70
2022/08/11 01:17:49;;;;;;;1.52;0.98;;;;;;;17.81;48.03;100285.41;5015814;28;20054;-70
2022/08/11 01:20:27;;;;;;;2.38;1.10;;;;;;;17.78;48.27;100278.50;5015301;28;20050;-69
2022/08/11 01:23:40;;;;;;;5.30;0.90;;;;;;;17.76;48.22;100285.66;5015384;28;20077;-70
2022/08/11 01:26:44;;;;;;;2.47;1.08;;;;;;;17.73;48.34;100289.19;5000405;28;20053;-69
2022/08/11 01:29:52;;;;;;;3.47;1.00;;;;;;;17.72;48.54;100293.19;5034866;28;20523;-69
2022/08/11 01:32:56;;;;;;;3.08;1.33;;;;;;;17.68;48.60;100289.47;5035218;28;20049;-70
2022/08/11 01:35:45;;;;;;;1.67;0.93;;;;;;;17.65;48.82;100288.19;5035248;28;20053;-69
2022/08/11 01:38:22;;;;;;;4.32;1.08;;;;;;;17.66;48.89;100289.84;5034443;28;20064;-70
2022/08/11 01:44:37;;;;;;;3.35;1.38;;;;;;;17.63;49.14;100290.56;5034554;28;20056;-70
2022/08/11 01:47:50;;;;;;;2.47;1.00;;;;;;;17.60;49.19;100294.09;5034806;28;20393;-70
2022/08/11 01:51:13;;;;;;;4.25;1.00;;;;;;;17.55;49.46;100290.72;5035031;28;20045;-70
2022/08/11 01:54:01;;;;;;;2.40;1.10;;;;;;;17.56;49.66;100292.38;4974024;28;20469;-70
2022/08/11 01:56:55;;;;;;;3.55;1.30;;;;;;;17.56;49.75;100301.63;4973608;28;20051;-69
2022/08/11 01:59:47;;;;;;;6.03;1.10;;;;;;;17.55;49.87;100301.97;4973498;28;20050;-69
2022/08/11 02:02:20;;;;;;;5.65;1.23;;;;;;;17.57;49.91;100317.34;4973765;28;20087;-70
2022/08/11 02:04:58;;;;;;;4.90;1.33;;;;;;;17.58;50.06;100307.69;4973729;28;20080;-68
2022/08/11 02:07:51;;;;;;;5.47;1.13;;;;;;;17.56;50.07;100303.63;4973740;28;20063;-70
2022/08/11 02:13:49;;;;;;;4.10;1.80;;;;;;;17.59;50.32;100308.53;4901814;29;20056;-70
2022/08/11 02:17:03;;;;;;;2.47;0.95;;;;;;;17.53;50.44;100305.16;4916067;29;20420;-70
2022/08/11 02:26:13;;;;;;;2.08;1.00;;;;;;;17.48;50.80;100313.03;4972720;28;20053;-70
2022/08/11 02:28:55;;;;;;;2.00;0.90;;;;;;;17.52;50.76;100314.78;5014240;28;20152;-70
2022/08/11 02:35:02;;;;;;;2.10;1.00;;;;;;;17.54;50.98;100317.22;5014445;28;20041;-69
2022/08/11 02:37:45;;;;;;;4.28;1.30;;;;;;;17.55;50.77;100319.69;5013760;28;20137;-70
2022/08/11 02:40:37;;;;;;;2.10;1.20;;;;;;;17.53;51.23;100324.03;5013962;28;20421;-70
2022/08/11 02:43:10;;;;;;;4.05;1.30;;;;;;;17.55;51.04;100325.31;5014056;28;20042;-70
2022/08/11 02:46:05;;;;;;;4.18;1.10;;;;;;;17.59;51.32;100316.97;5013761;28;20132;-70
2022/08/11 02:52:13;;;;;;;4.75;1.35;;;;;;;17.63;51.45;100318.72;5013995;28;20058;-70
2022/08/11 02:55:07;;;;;;;1.90;1.00;;;;;;;17.69;51.44;100319.25;5022028;28;20358;-69
2022/08/11 02:58:02;;;;;;;1.67;0.98;;;;;;;17.73;51.46;100325.78;5020510;28;20057;-69
2022/08/11 03:00:41;;;;;;;4.13;1.52;;;;;;;17.71;51.55;100328.16;4993923;28;20478;-70
2022/08/11 03:03:15;;;;;;;6.63;1.10;;;;;;;17.74;51.72;100338.69;5047212;28;20045;-73
2022/08/11 03:05:54;;;;;;;3.17;1.30;;;;;;;17.80;51.87;100337.25;5033086;28;20103;-76
2022/08/11 03:08:39;;;;;;;3.08;1.13;;;;;;;17.84;51.75;100338.16;5048577;28;20053;-76
2022/08/11 03:17:32;;;;;;;2.85;1.00;;;;;;;17.99;51.82;100342.97;5033418;28;20061;-76
2022/08/11 03:20:33;;;;;;;4.38;1.20;;;;;;;18.04;51.28;100339.91;5033145;28;20141;-76
2022/08/11 03:23:28;;;;;;;2.50;1.00;;;;;;;18.22;51.02;100338.34;5033117;28;20490;-77
2022/08/11 03:26:22;;;;;;;3.92;1.20;;;;;;;18.40;50.49;100339.63;5033002;28;20053;-77
2022/08/11 03:29:00;;;;;;;2.20;1.10;;;;;;;18.61;49.81;100345.78;5032600;28;20049;-75
2022/08/11 03:31:36;;;;;;;2.28;0.98;;;;;;;18.75;49.34;100345.28;5032874;28;20049;-75
2022/08/11 03:34:07;;;;;;;2.15;0.80;;;;;;;18.86;49.35;100346.34;5031421;28;20049;-76
2022/08/11 03:36:45;;;;;;;1.88;0.95;;;;;;;18.87;49.24;100340.34;5032878;28;20045;-76
2022/08/11 03:39:56;;;;;;;3.42;1.33;;;;;;;18.86;49.25;100347.16;5017727;28;20144;-76
2022/08/11 03:42:52;;;;;;;2.58;1.25;;;;;;;18.82;49.21;100339.81;5033034;28;20053;-76
2022/08/11 03:45:25;;;;;;;3.33;1.30;;;;;;;18.77;49.26;100348.56;5029732;28;20062;-76
2022/08/11 03:48:06;;;;;;;3.08;1.33;;;;;;;18.75;49.21;100351.75;5032818;28;20068;-76
2022/08/11 03:50:52;;;;;;;3.40;1.10;;;;;;;18.74;49.27;100352.91;5032575;28;20393;-76
2022/08/11 03:53:46;;;;;;;7.53;1.45;;;;;;;18.80;49.29;100354.28;5032334;28;20060;-75
2022/08/11 03:56:37;;;;;;;5.05;1.27;;;;;;;18.89;48.93;100345.63;5032821;28;20045;-76
2022/08/11 03:59:24;;;;;;;3.75;1.38;;;;;;;18.98;48.88;100347.03;5032182;28;20500;-75
2022/08/11 04:02:36;;;;;;;4.20;1.27;;;;;;;19.02;49.01;100353.59;5031832;28;20166;-75
2022/08/11 04:05:25;;;;;;;6.82;1.45;;;;;;;19.08;48.77;100348.44;5009575;28;20139;-76
2022/08/11 04:08:34;;;;;;;6.25;1.38;;;;;;;19.15;48.67;100348.59;5032112;28;20521;-75
2022/08/11 04:11:38;;;;;;;2.70;1.07;;;;;;;19.17;48.59;100346.22;5032504;28;20136;-76
2022/08/11 04:17:41;;;;;;;4.32;1.38;;;;;;;19.27;48.59;100348.50;5032288;28;20053;-77
2022/08/11 04:20:35;;;;;;;4.33;1.40;;;;;;;19.36;48.60;100341.44;5032393;28;20524;-77
2022/08/11 04:23:37;;;;;;;2.40;1.30;;;;;;;19.40;48.25;100344.34;5032132;28;20489;-76
2022/08/11 04:26:46;;;;;;;2.72;1.10;;;;;;;19.40;48.28;100344.34;5012544;28;20061;-77
2022/08/11 04:30:13;;;;;;;3.15;1.05;;;;;;;19.46;48.02;100342.84;5012453;28;20062;-76
2022/08/11 04:33:26;;;;;;;3.97;1.30;;;;;;;19.48;48.11;100344.09;4952107;29;20380;-77
2022/08/11 04:39:33;;;;;;;2.25;1.27;;;;;;;19.68;47.89;100348.53;5012453;28;20046;-76
2022/08/11 04:45:19;;;;;;;6.13;1.35;;;;;;;19.79;47.55;100346.75;5010775;28;20398;-76
2022/08/11 05:03:53;;;;;;;6.13;1.80;;;;;;;20.02;47.64;100360.06;5019691;28;20042;-76
2022/08/11 05:06:48;;;;;;;3.75;1.20;;;;;;;20.14;47.64;100357.09;5031863;28;20067;-76
2022/08/11 05:09:52;;;;;;;3.80;1.40;;;;;;;20.24;47.11;100356.44;5030639;28;20095;-76
2022/08/11 05:12:33;;;;;;;4.28;1.92;;;;;;;20.34;47.02;100361.47;5030625;28;20052;-76
2022/08/11 05:35:45;;;;;;;4.32;1.40;;;;;;;21.20;45.21;100366.06;5015448;28;20524;-76
2022/08/11 05:58:38;;;;;;;3.77;1.43;;;;;;;24.96;37.54;100355.84;5034269;28;20073;-75
2022/08/11 06:01:11;;;;;;;2.53;1.30;;;;;;;26.32;34.77;100356.47;5049369;28;20055;-77
2022/08/11 06:06:28;;;;;;;3.10;1.30;;;;;;;25.08;36.46;100357.47;5034679;28;19932;-77
2022/08/11 06:08:57;;;;;;;7.03;2.10;;;;;;;24.39;37.71;100353.44;5034321;28;20512;-78
2022/08/11 06:11:25;;;;;;;11.95;2.63;;;;;;;24.31;37.59;100354.66;5034425;28;20139;-78
2022/08/11 06:14:11;;;;;;;6.78;2.58;;;;;;;24.71;37.02;100345.72;5033960;28;20053;-76
2022/08/11 06:16:41;;;;;;;13.82;2.53;;;;;;;25.18;35.97;100356.59;5033137;28;20053;-77
2022/08/11 06:19:09;;;;;;;2.35;1.20;;;;;;;26.26;34.17;100358.13;5033935;28;20076;-76
2022/08/11 06:21:36;;;;;;;3.65;1.38;;;;;;;25.94;34.40;100359.56;5033369;28;20052;-76
2022/08/11 06:24:11;;;;;;;4.95;1.40;;;;;;;26.57;33.85;100348.53;5032178;28;20412;-76
2022/08/11 06:26:40;;;;;;;5.85;1.63;;;;;;;26.51;33.64;100353.06;5033860;28;20061;-76
2022/08/11 06:29:29;;;;;;;2.25;1.40;;;;;;;27.29;32.57;100352.34;5033512;28;20060;-76
2022/08/11 06:32:14;;;;;;;4.70;1.20;;;;;;;26.62;33.08;100353.81;5033544;28;20080;-76
2022/08/11 06:35:08;;;;;;;2.17;1.20;;;;;;;25.76;34.54;100361.72;5033854;28;20041;-77
2022/08/11 06:37:52;;;;;;;8.88;1.60;;;;;;;25.40;35.33;100360.25;5033834;28;20049;-77
2022/08/11 06:40:26;;;;;;;;;;;;;;;27.17;32.83;100356.53;5033967;28;20050;-76
2022/08/11 06:43:03;;;;;;;3.80;1.55;;;;;;;29.57;29.51;100348.69;5033662;28;20012;-77
2022/08/11 06:45:54;;;;;;;7.05;1.60;;;;;;;29.93;28.61;100356.09;5032230;28;20516;-76
2022/08/11 06:48:23;;;;;;;4.45;1.30;;;;;;;28.78;30.07;100356.34;5033342;28;20049;-76
2022/08/11 06:51:12;;;;;;;12.30;1.50;;;;;;;28.06;30.73;100354.19;5033400;28;20084;-77
2022/08/11 06:53:44;;;;;;;6.35;1.40;;;;;;;28.35;30.27;100352.53;5033295;28;20128;-76
2022/08/11 07:02:40;;;;;;;6.28;1.80;;;;;;;26.78;33.06;100365.50;5032852;28;20057;-77
2022/08/11 07:05:22;;;;;;;12.32;1.60;;;;;;;26.43;33.30;100362.09;5033312;28;20056;-77
2022/08/11 07:16:59;;;;;;;6.80;1.27;;;;;;;27.44;30.93;100359.53;5033319;28;20064;-76
2022/08/11 07:31:13;;;;;;;6.13;1.20;;;;;;;43.09;14.97;100346.50;5032162;28;20041;-78
2022/08/11 07:33:43;;;;;;;4.40;1.40;;;;;;;45.86;12.27;100346.53;5032442;28;20041;-75
2022/08/11 07:36:31;;;;;;;1.73;1.08;;;;;;;47.78;10.69;100343.47;5031938;28;20059;-76
2022/08/11 07:38:59;;;;;;;;;;;;;;;49.04;10.72;100342.38;5030751;28;20151;-76
2022/08/11 07:41:29;;;;;;;4.07;1.35;;;;;;;50.52;8.82;100350.13;5030407;28;19925;-76
2022/08/11 07:44:08;;;;;;;5.22;1.60;;;;;;;50.27;8.56;100352.03;5028132;28;20048;-76
2022/08/11 07:52:32;;;;;;;4.13;1.45;;;;;;;52.86;6.84;100347.03;5017629;28;20084;-77
2022/08/11 07:55:20;;;;;;;5.68;1.50;;;;;;;54.15;6.37;100347.13;5030116;28;20067;-76
2022/08/11 08:17:56;;;;;;;7.25;1.88;;;;;;;53.73;5.88;100347.28;5030913;28;20728;-75
2022/08/11 08:20:39;;;;;;;10.93;2.10;;;;;;;55.82;4.90;100344.28;5030934;28;20061;-77
2022/08/11 08:23:08;;;;;;;3.22;1.52;;;;;;;56.84;4.45;100345.22;5031638;28;20053;-77
2022/08/11 08:25:38;;;;;;;4.90;1.60;;;;;;;57.58;4.00;100338.56;5030405;28;20041;-77
2022/08/11 08:28:09;;;;;;;3.60;2.03;;;;;;;58.24;3.84;100351.31;5031419;28;20063;-76
2022/08/11 08:30:46;;;;;;;3.72;1.65;;;;;;;54.48;4.93;100337.25;5031084;28;20053;-78
2022/08/11 08:33:41;;;;;;;3.22;1.50;;;;;;;49.75;7.02;100335.69;5031488;28;20045;-78
2022/08/11 08:36:13;;;;;;;2.33;1.40;;;;;;;46.81;8.61;100331.00;5020555;28;20089;-77
2022/08/11 08:38:46;;;;;;;3.22;1.70;;;;;;;50.89;6.74;100322.66;5027281;28;20073;-76
2022/08/11 08:41:19;;;;;;;5.35;1.75;;;;;;;53.23;5.32;100330.97;5031882;28;20444;-76
2022/08/11 08:43:51;;;;;;;3.10;1.60;;;;;;;54.77;4.70;100322.44;5031535;28;20045;-78
2022/08/11 08:46:26;;;;;;;5.57;1.88;;;;;;;56.13;4.36;100327.25;5030660;28;20148;-78
2022/08/11 08:48:55;;;;;;;3.08;1.50;;;;;;;57.36;4.11;100336.22;5034124;28;20061;-78
2022/08/11 08:51:35;;;;;;;14.38;3.28;;;;;;;58.41;3.43;100342.75;5035567;28;20421;-79
2022/08/11 08:54:36;;;;;;;5.95;1.88;;;;;;;58.45;3.19;100340.00;5036348;28;20152;-79
2022/08/11 08:57:08;;;;;;;3.97;2.08;;;;;;;58.89;3.13;100341.31;5036010;28;20064;-77
2022/08/11 08:59:44;;;;;;;7.85;2.15;;;;;;;59.20;2.42;100341.78;5035351;28;20041;-79
2022/08/11 09:02:18;;;;;;;3.47;2.30;;;;;;;59.88;2.73;100334.78;5035377;28;20097;-79
2022/08/11 09:05:02;;;;;;;2.80;1.93;;;;;;;56.58;3.43;100323.13;5034803;28;20152;-78
2022/08/11 09:07:31;;;;;;;7.13;2.30;;;;;;;56.17;3.77;100318.56;5035265;28;20054;-79
2022/08/11 09:10:09;;;;;;;4.20;2.20;;;;;;;57.60;3.59;100323.75;5035714;28;20507;-77
2022/08/11 09:12:39;;;;;;;3.80;1.98;;;;;;;56.91;3.58;100324.06;5035498;28;20069;-78
2022/08/11 09:15:10;;;;;;;3.67;2.13;;;;;;;57.56;2.69;100317.44;5034043;28;20469;-77
2022/08/11 09:17:49;;;;;;;6.72;2.20;;;;;;;58.50;2.45;100320.06;5035506;28;20054;-80
2022/08/11 09:20:20;;;;;;;2.97;2.22;;;;;;;59.41;1.88;100317.59;5037705;28;20057;-80
2022/08/11 09:28:46;;;;;;;4.07;2.38;;;;;;;60.64;1.66;100305.34;5035490;28;20420;-81
2022/08/11 09:31:20;;;;;;;7.28;1.83;;;;;;;55.48;3.60;100300.63;5035489;28;20560;-79
2022/08/11 09:33:52;;;;;;;6.97;1.50;;;;;;;49.24;6.32;100290.44;5034000;28;20457;-79
2022/08/11 09:42:00;;;;;;;3.75;1.92;;;;;;;41.18;11.26;100288.94;5033491;28;20053;-80
2022/08/11 09:44:47;;;;;;;8.73;1.65;;;;;;;39.12;13.07;100294.75;5031788;28;20095;-79
2022/08/11 09:47:20;;;;;;;3.55;1.88;;;;;;;37.52;13.73;100295.00;5031092;28;20053;-78
2022/08/11 09:49:50;;;;;;;5.13;1.08;;;;;;;36.43;14.24;100292.91;5032164;28;20041;-77
2022/08/11 09:52:18;;;;;;;3.22;1.17;;;;;;;35.16;16.30;100296.56;5031368;28;20073;-78
2022/08/11 09:54:47;;;;;;;3.97;1.17;;;;;;;34.13;17.00;100290.66;5031706;28;20053;-79
2022/08/11 10:00:08;;;;;;;15.77;3.15;;;;;;;32.78;19.44;100285.47;5040190;28;20069;-74
2022/08/11 10:02:46;;;;;;;7.57;1.80;;;;;;;32.28;19.45;100285.53;5053513;28;20079;-77
2022/08/11 10:08:13;;;;;;;5.30;1.30;;;;;;;31.19;20.27;100282.31;5030487;28;20052;-76
2022/08/11 10:10:40;;;;;;;5.63;1.30;;;;;;;31.01;19.94;100287.75;5026060;28;20055;-71
2022/08/11 10:13:20;;;;;;;8.30;1.52;;;;;;;30.85;20.60;100282.06;5026788;28;20053;-77
2022/08/11 10:16:16;;;;;;;2.40;1.08;;;;;;;30.44;20.50;100287.66;5027816;28;20055;-76
2022/08/11 10:18:51;;;;;;;3.50;1.30;;;;;;;29.96;21.67;100280.59;5035331;28;20044;-78
2022/08/11 10:21:27;;;;;;;2.88;1.20;;;;;;;29.62;21.70;100276.44;5035569;28;20103;-78
2022/08/11 10:26:57;;;;;;;1.92;1.17;;;;;;;29.17;22.73;100266.78;5036206;28;20041;-78
2022/08/11 10:35:27;;;;;;;4.10;1.02;;;;;;;28.77;22.87;100271.63;5036521;28;20555;-78
2022/08/11 10:37:54;;;;;;;;;;;;;;;28.86;22.79;100274.72;5036530;28;20045;-76
2022/08/11 10:40:38;;;;;;;3.13;1.20;;;;;;;28.97;23.35;100277.38;5036830;28;19990;-79
2022/08/11 10:43:12;;;;;;;3.25;1.55;;;;;;;29.19;23.41;100275.75;5023357;28;20049;-76
2022/08/11 10:48:36;;;;;;;3.53;1.33;;;;;;;29.40;22.74;100269.56;5021354;28;20135;-81
2022/08/11 10:51:14;;;;;;;2.25;1.50;;;;;;;29.22;23.06;100269.16;5036577;28;20042;-79
2022/08/11 10:59:33;;;;;;;5.45;1.40;;;;;;;28.09;25.33;100258.91;5033187;28;20516;-78
2022/08/11 11:02:00;;;;;;;9.80;2.85;;;;;;;27.90;25.26;100257.59;5034799;28;20057;-81
2022/08/11 11:04:53;;;;;;;2.40;1.35;;;;;;;27.85;25.37;100249.47;5035543;28;20053;-80
2022/08/11 11:07:23;;;;;;;3.75;1.23;;;;;;;28.02;25.12;100247.59;5035803;28;20460;-78
2022/08/11 11:09:57;;;;;;;3.65;2.00;;;;;;;28.19;24.88;100249.38;5037158;28;20068;-78
2022/08/11 11:18:08;;;;;;;2.95;1.52;;;;;;;28.03;24.76;100243.47;5036220;28;20388;-79
2022/08/11 11:20:44;;;;;;;4.55;1.40;;;;;;;28.01;25.08;100251.72;5036284;28;20049;-79
2022/08/11 11:23:24;;;;;;;3.77;1.50;;;;;;;28.02;25.04;100236.97;5035929;28;20059;-78
2022/08/11 11:26:09;;;;;;;2.40;1.25;;;;;;;28.08;25.04;100229.50;5035949;28;20140;-80
2022/08/11 11:28:55;;;;;;;3.25;1.38;;;;;;;28.02;25.15;100236.16;5034138;28;20155;-77
2022/08/11 11:31:47;;;;;;;3.58;1.42;;;;;;;28.00;24.89;100228.00;5031990;28;20061;-79
2022/08/11 11:34:26;;;;;;;9.15;1.45;;;;;;;27.97;25.01;100231.72;5008884;28;20045;-71
2022/08/11 11:36:58;;;;;;;5.28;1.60;;;;;;;27.99;24.68;100231.28;5028690;28;20053;-70
2022/08/11 11:39:33;;;;;;;3.75;1.30;;;;;;;28.00;24.90;100233.72;5032603;28;20041;-73
2022/08/11 11:42:06;;;;;;;8.45;1.77;;;;;;;28.06;24.77;100236.91;4997893;28;20045;-70
2022/08/11 11:44:36;;;;;;;3.38;1.42;;;;;;;27.88;25.20;100244.94;5030053;28;20069;-70
2022/08/11 11:47:04;;;;;;;8.73;4.05;;;;;;;27.78;24.96;100228.75;5031379;28;20052;-73
2022/08/11 11:49:42;;;;;;;10.38;3.42;;;;;;;27.77;24.92;100230.00;5027255;28;20132;-71
2022/08/11 11:52:16;;;;;;;2.70;1.40;;;;;;;27.80;25.22;100234.84;5014681;28;20393;-71
2022/08/11 11:54:54;;;;;;;5.90;1.63;;;;;;;27.77;25.20;100232.88;4994546;28;20050;-71
2022/08/11 12:03:11;;;;;;;2.83;1.30;;;;;;;27.51;25.36;100223.03;4983208;28;20046;-69
2022/08/11 12:05:42;;;;;;;2.45;1.27;;;;;;;27.43;25.35;100221.50;4992155;28;20078;-70
2022/08/11 12:08:15;;;;;;;2.50;1.40;;;;;;;27.34;25.37;100224.09;4978734;28;20778;-70
2022/08/11 12:10:48;;;;;;;6.53;1.35;;;;;;;27.28;25.45;100211.53;4992264;28;20060;-71
2022/08/11 12:16:03;;;;;;;5.57;1.58;;;;;;;27.27;25.58;100218.47;4987360;28;20415;-70
2022/08/11 12:18:53;;;;;;;4.22;1.60;;;;;;;27.31;25.54;100224.94;4992788;28;20356;-72
2022/08/11 12:21:23;;;;;;;3.78;1.52;;;;;;;27.33;25.19;100221.66;4989833;28;20153;-70
2022/08/11 12:29:45;;;;;;;3.95;1.60;;;;;;;27.20;25.70;100214.88;4995651;28;20057;-69
2022/08/11 12:32:23;;;;;;;3.85;1.90;;;;;;;27.18;25.95;100203.88;4995031;28;20054;-76
2022/08/11 12:34:50;;;;;;;4.82;2.10;;;;;;;27.19;25.90;100210.38;4996677;28;20453;-76
2022/08/11 12:37:22;;;;;;;8.68;2.15;;;;;;;27.30;25.60;100211.91;4996703;28;20050;-76
2022/08/11 12:46:07;;;;;;;4.38;1.40;;;;;;;27.14;25.61;100208.03;4996691;28;20077;-76
2022/08/11 12:55:03;;;;;;;2.85;1.58;;;;;;;27.13;25.71;100206.38;4996275;28;20070;-77
2022/08/11 13:06:06;;;;;;;5.20;1.53;;;;;;;27.14;25.69;100205.16;4996341;28;20494;-67
2022/08/11 13:08:35;;;;;;;3.07;1.83;;;;;;;27.12;25.71;100208.44;4996174;28;20049;-68
2022/08/11 13:13:51;;;;;;;53.55;22.80;;;;;;;27.00;25.88;100193.91;4995113;28;20062;-67
2022/08/11 13:16:29;;;;;;;8.52;2.33;;;;;;;27.02;26.22;100197.97;4994424;28;20045;-67
2022/08/11 13:18:59;;;;;;;18.90;3.22;;;;;;;27.05;26.19;100199.16;4995587;28;20050;-67
2022/08/11 13:21:28;;;;;;;4.97;1.70;;;;;;;27.10;26.56;100198.69;4988847;28;20178;-68
2022/08/11 13:23:57;;;;;;;4.73;1.60;;;;;;;27.10;26.21;100208.06;4991979;28;20050;-69
2022/08/11 13:26:36;;;;;;;6.20;1.65;;;;;;;27.05;26.30;100199.16;4994773;28;20497;-72
2022/08/11 13:29:27;;;;;;;7.45;2.78;;;;;;;27.04;25.97;100186.09;4990271;28;20133;-72
2022/08/11 13:34:42;;;;;;;2.95;1.38;;;;;;;27.01;25.99;100192.69;5030005;28;20128;-69
2022/08/11 13:37:11;;;;;;;4.13;2.05;;;;;;;27.00;25.92;100191.88;5034278;28;20037;-69
2022/08/11 13:39:46;;;;;;;4.65;1.55;;;;;;;26.99;26.19;100189.47;5021653;28;20045;-70
2022/08/11 13:42:16;;;;;;;9.15;2.15;;;;;;;26.94;26.83;100189.91;5015897;28;20128;-68
2022/08/11 13:44:46;;;;;;;4.85;1.55;;;;;;;26.93;26.79;100188.28;5014690;28;20452;-69
2022/08/11 13:47:15;;;;;;;2.65;1.42;;;;;;;26.93;26.73;100185.41;5014998;28;20425;-68
2022/08/11 13:49:43;;;;;;;3.55;1.50;;;;;;;26.90;27.01;100181.38;5014829;28;20045;-68
2022/08/11 13:52:16;;;;;;;5.38;2.67;;;;;;;26.72;27.01;100187.31;5014547;28;20057;-69
2022/08/11 13:54:47;;;;;;;2.88;1.70;;;;;;;26.69;27.14;100179.63;5014518;28;20511;-68
2022/08/11 13:57:17;;;;;;;3.58;1.50;;;;;;;26.64;27.26;100174.38;5014309;28;20054;-67
2022/08/11 14:00:10;;;;;;;4.22;2.15;;;;;;;26.56;27.27;100184.19;5013796;28;20061;-68
2022/08/11 14:02:55;;;;;;;6.93;1.83;;;;;;;26.50;26.91;100174.47;5014490;28;20506;-67
2022/08/11 14:05:30;;;;;;;3.97;1.83;;;;;;;26.48;26.65;100176.97;5014567;28;20049;-67
2022/08/11 14:08:04;;;;;;;5.30;2.10;;;;;;;26.50;27.04;100171.63;5013588;28;20041;-68
2022/08/11 14:10:36;;;;;;;5.90;1.83;;;;;;;26.52;26.90;100183.44;5014005;28;20080;-71
2022/08/11 14:16:28;;;;;;;4.63;1.60;;;;;;;26.47;26.64;100168.84;5011553;28;20054;-68
2022/08/11 14:19:01;;;;;;;25.00;3.55;;;;;;;26.45;26.69;100172.13;5004585;28;20513;-68
2022/08/11 14:24:21;;;;;;;6.43;1.38;;;;;;;26.36;26.63;100166.09;5012622;28;20077;-69
2022/08/11 14:26:50;;;;;;;4.93;1.85;;;;;;;26.32;26.98;100156.75;5011612;28;20439;-71
2022/08/11 14:29:20;;;;;;;2.92;1.80;;;;;;;26.23;27.21;100165.00;5011390;28;20056;-69
2022/08/11 14:32:07;;;;;;;2.80;1.65;;;;;;;26.18;26.79;100156.91;5010464;28;20073;-71
2022/08/11 14:34:38;;;;;;;8.07;2.10;;;;;;;26.14;27.49;100156.13;5030392;28;20499;-68
2022/08/11 14:37:26;;;;;;;13.13;2.50;;;;;;;26.05;27.49;100147.25;5031358;28;20104;-76
2022/08/11 14:39:57;;;;;;;6.90;2.20;;;;;;;26.01;27.66;100149.34;5034431;28;20497;-69
2022/08/11 14:48:22;;;;;;;10.20;1.73;;;;;;;25.96;28.26;100152.59;5018132;28;20045;-71
2022/08/11 14:50:50;;;;;;;3.55;1.60;;;;;;;25.97;28.02;100151.38;5032257;28;20484;-79
2022/08/11 14:53:26;;;;;;;5.20;1.33;;;;;;;25.96;27.56;100149.75;5016378;28;20053;-75
2022/08/11 14:58:41;;;;;;;5.45;1.83;;;;;;;25.95;27.63;100148.16;5030571;28;20135;-73
2022/08/11 15:03:09;;;;;;;2.55;1.60;;;;;;;25.93;28.29;100147.75;5030805;28;20061;-70
2022/08/11 15:03:58;;;;;;;8.68;2.92;;;;;;;25.89;28.26;100141.28;5028791;28;20049;-70
2022/08/11 15:06:46;;;;;;;3.33;1.60;;;;;;;25.83;27.95;100140.09;5031304;28;20046;-69
2022/08/11 15:09:14;;;;;;;13.30;2.67;;;;;;;25.83;27.99;100142.97;5030984;28;20061;-68
2022/08/11 15:17:22;;;;;;;5.03;1.50;;;;;;;25.66;28.54;100146.75;5031282;28;20060;-69
2022/08/11 15:25:29;;;;;;;8.75;4.03;;;;;;;25.56;29.17;100138.28;5032299;28;20045;-70
2022/08/11 15:45:46;;;;;;;16.48;2.45;;;;;;;25.42;30.28;100142.06;5028999;28;20064;-69
2022/08/11 15:48:15;;;;;;;15.80;5.47;;;;;;;25.21;31.03;100141.38;5030553;28;20053;-69
2022/08/11 15:50:51;;;;;;;9.70;4.43;;;;;;;25.16;31.35;100142.63;5032098;28;20053;-72
2022/08/11 15:53:40;;;;;;;8.98;2.22;;;;;;;25.11;31.23;100149.56;5012780;28;20054;-72
2022/08/11 15:56:09;;;;;;;5.53;1.92;;;;;;;25.08;31.50;100152.44;5026777;28;20045;-74
2022/08/11 16:04:44;;;;;;;3.85;1.90;;;;;;;24.85;32.27;100152.16;5033036;28;20042;-72
2022/08/11 16:07:26;;;;;;;5.38;1.83;;;;;;;24.91;31.28;100148.47;5032147;28;20053;-73
2022/08/11 16:10:07;;;;;;;6.10;2.13;;;;;;;24.89;31.45;100148.06;5012383;28;20509;-73
2022/08/11 16:18:39;;;;;;;3.67;2.08;;;;;;;24.84;31.75;100150.53;5033288;28;20045;-72
2022/08/11 16:21:09;;;;;;;9.93;2.20;;;;;;;24.82;32.21;100141.59;5030891;28;20072;-72
2022/08/11 16:23:59;;;;;;;10.55;3.72;;;;;;;24.78;32.51;100155.81;5029074;28;20055;-72
2022/08/11 16:26:28;;;;;;;6.97;2.35;;;;;;;24.73;32.73;100142.03;5032959;28;20041;-72
2022/08/11 16:29:16;;;;;;;11.23;2.43;;;;;;;24.62;32.24;100135.56;5030382;28;20053;-71
2022/08/11 16:32:15;;;;;;;6.22;1.90;;;;;;;24.67;31.76;100140.03;5032672;28;20741;-76
2022/08/11 16:40:08;;;;;;;6.63;2.33;;;;;;;24.45;32.42;100138.47;5030048;28;20140;-70
2022/08/11 16:48:29;;;;;;;5.00;2.35;;;;;;;24.22;33.70;100146.66;5030695;28;20059;-72
2022/08/11 16:51:09;;;;;;;7.07;3.22;;;;;;;24.18;33.77;100143.00;5032035;28;20560;-73
2022/08/11 16:53:38;;;;;;;10.40;2.38;;;;;;;24.10;34.22;100149.94;5032300;28;20484;-69
2022/08/11 16:56:48;;;;;;;13.53;2.70;;;;;;;24.03;34.37;100144.22;5031784;28;20389;-71
2022/08/11 16:59:35;;;;;;;5.00;2.33;;;;;;;23.96;34.63;100142.22;5031084;28;20052;-70
2022/08/11 17:02:11;;;;;;;5.80;2.22;;;;;;;23.92;34.64;100138.53;5030695;28;20053;-70
2022/08/11 17:14:08;;;;;;;6.18;2.30;;;;;;;23.64;35.47;100154.78;5042721;28;20092;-73
2022/08/11 17:16:39;;;;;;;11.43;2.80;;;;;;;23.63;35.59;100156.00;4956329;28;20047;-76
2022/08/11 17:19:15;;;;;;;15.80;2.58;;;;;;;23.57;35.60;100155.63;4947780;28;20427;-73
2022/08/11 17:24:35;;;;;;;11.38;2.88;;;;;;;23.46;36.07;100153.97;4949439;28;20432;-70
2022/08/11 17:27:06;;;;;;;6.40;2.60;;;;;;;23.42;36.37;100157.59;4942854;28;20093;-69
2022/08/11 17:29:47;;;;;;;10.05;2.65;;;;;;;23.41;36.19;100155.19;4954406;28;20066;-70
2022/08/11 17:35:38;;;;;;;9.75;2.33;;;;;;;23.28;36.21;100154.78;4954473;29;20059;-71
2022/08/11 17:38:20;;;;;;;5.85;2.20;;;;;;;23.25;36.29;100154.75;4944362;29;20067;-71